Airfield :
LOGIN :

Register | Disclaimer

   EN    FR    IT 

 










Legend :    VFR   Marginal VFR   IFR   Intensive IFR   Very Intensive IFR
Visi :
Ceiling :
>= 8 km
>= 3000ft
5 to 8 km
1000 to 3000 ft
1500m to 5 km
500 to 1000 ft
800 to 1500m
200 to 500 ft
< 800m
< 200 ft
Symbols :   Thunderstorms  Fog  Heavy snow  Heavy precipitations  Wind > 20 kt
SIGMETs :     Misc.  Thunderstorms  Icing  Turbulence  Mountain Waves  Volcanic Ashes






- Airport Elevation : 124 ft
- IATA code : NHT


EGWU - RAF Northolt

CURRENT METAR :
  • 311750Z 29009KT 9999 SCT022TCU SCT065 BKN100 19/13 Q1009 TEMPO FEW022

EXPIRED METARs :
  • 311720Z 28007KT 9999 FEW020TCU SCT060 BKN090 19/13 Q1009 TEMPO SCT020TCU RMK BLU TEMPO WHT
  • 311650Z 28007KT 9999 FEW020 BKN065 19/13 Q1009 TEMPO SCT020 RMK BLU TEMPO WHT
  • 311620Z 29005KT 9999 FEW018 BKN070 19/14 Q1009 TEMPO SCT020TCU RMK BLU TEMPO WHT
  • 311550Z 29007KT 9999 -SHRA SCT020TCU BKN070 19/14 Q1009 TEMPO FEW020TCU RMK WHT TEMPO BLU
  • 311522Z 28008KT 9999 SCT020CB BKN070 18/14 Q1009 TEMPO FEW020CB

TAF TAF EGWU
Valid from the 31 at 18:00 until the 01 at 12:00 UTC


311646Z 3118/0112 30007KT 9999 FEW020 BKN060
PROB40
TEMPO 3118/3119 7000 SHRA SCT020TCU
PROB30
TEMPO 0103/0110 SCT018



MET'MAP, your aeronautical weather chart ! - Copyright ORBIFLY December 2007 - Disclaimer

ORBIFLY MET'MAP TEAM :

Programming & Development : Alexandra Zaïnal
Concept & original design : Baudouin d'Aumeries
Assistance for programming : Marc-Olivier Méhu
Technical & hardware support : Manuel Goepfert

Contact : metmap@orbifly.com




SOURCES & CREDITS :

   NOAA